Air Park, Nebraska
Current Conditions -  °F | °C
As of 11:54 AM on Thursday 29 Jan 2015 (Local Time) from KLNK Reporting Station
Overcast Overcast  
Wind Chill: 32°   Ceiling: 3200
Heat Index: 41°   Visibility: 10mi
Dew Point: 27°   Wind: 21mph
Humidity: 57%   Direction: 340°NNW
Pressure: 30.43"   Gusts: 30mph
Location:  40.8731°N, 96.8015°W
Report Text: KLNK 291754Z 34018G26KT 10SM BKN032 OVC040 05/M03 A3043 RMK AO2 PK WND 34032/1655 SLP312 T00501028 10056 20033 51029
Loading
Personal Weather Stations






























Interactive Weather Map New forecast layout! Learn more

10-Day Weather Forecast

Advertisements
Track Severe Weather on mobile